Time;durP1;ratioP1;P1;durP2;ratioP2;P2;SDS_P1;SDS_P2;PMS_P1;PMS_P2;Temp;Humidity;BMP_temperature;BMP_pressure;BME280_temperature;BME280_humidity;BME280_pressure;Samples;Min_cycle;Max_cycle;Signal;HPM_P1;HPM_P2
2022/03/05 00:00:11;;;;;;;5.68;2.58;;;;;;;;;;6043758;23;20067;-44
2022/03/05 00:02:36;;;;;;;9.85;2.85;;;;;;;;;;6041750;23;20056;-49
2022/03/05 00:05:02;;;;;;;7.65;3.15;;;;;;;;;;6043644;23;20027;-45
2022/03/05 00:07:27;;;;;;;6.40;2.08;;;;;;;;;;6042539;23;20027;-43
2022/03/05 00:09:52;;;;;;;4.72;2.58;;;;;;;;;;6043785;23;20019;-44
2022/03/05 00:12:18;;;;;;;10.18;3.05;;;;;;;;;;6042469;23;20034;-43
2022/03/05 00:14:43;;;;;;;6.53;2.38;;;;;;;;;;6043558;23;20008;-43
2022/03/05 00:17:08;;;;;;;4.80;1.98;;;;;;;;;;6043808;23;20042;-46
2022/03/05 00:19:33;;;;;;;10.55;2.35;;;;;;;;;;6043237;23;20034;-44
2022/03/05 00:22:01;;;;;;;4.72;1.88;;;;;;;;;;6042773;23;20047;-46
2022/03/05 00:24:27;;;;;;;3.38;1.90;;;;;;;;;;6043009;23;20741;-45
2022/03/05 00:26:52;;;;;;;4.55;1.80;;;;;;;;;;6043142;23;20011;-43
2022/03/05 00:29:17;;;;;;;7.38;2.20;;;;;;;;;;6017686;23;20011;-48
2022/03/05 00:31:43;;;;;;;8.75;2.60;;;;;;;;;;6042316;23;20027;-43
2022/03/05 00:34:08;;;;;;;7.80;2.35;;;;;;;;;;6043321;23;20016;-47
2022/03/05 00:36:33;;;;;;;8.60;3.05;;;;;;;;;;6041539;23;20027;-46
2022/03/05 00:38:59;;;;;;;10.02;2.65;;;;;;;;;;6044192;23;20352;-45
2022/03/05 00:41:24;;;;;;;7.32;2.65;;;;;;;;;;6042440;23;20007;-44
2022/03/05 00:43:49;;;;;;;4.40;2.10;;;;;;;;;;6042817;23;20011;-44
2022/03/05 00:46:14;;;;;;;4.22;2.42;;;;;;;;;;6042676;23;20026;-44
2022/03/05 00:48:40;;;;;;;9.05;2.65;;;;;;;;;;6044001;23;20015;-45
2022/03/05 00:51:05;;;;;;;6.40;2.30;;;;;;;;;;6042116;23;20019;-47
2022/03/05 00:53:31;;;;;;;4.50;2.70;;;;;;;;;;6042739;23;22216;-43
2022/03/05 00:55:56;;;;;;;17.88;4.05;;;;;;;;;;6040654;23;20015;-44
2022/03/05 00:58:21;;;;;;;6.72;2.13;;;;;;;;;;6043491;23;20049;-45
2022/03/05 01:00:47;;;;;;;7.78;1.90;;;;;;;;;;6040864;23;20015;-46
2022/03/05 01:03:13;;;;;;;8.98;2.72;;;;;;;;;;6043574;23;20019;-50
2022/03/05 01:05:38;;;;;;;5.70;2.55;;;;;;;;;;6041071;23;20032;-45
2022/03/05 01:08:03;;;;;;;4.85;1.80;;;;;;;;;;6044047;23;20011;-44
2022/03/05 01:10:29;;;;;;;5.82;2.55;;;;;;;;;;6041848;23;20034;-46
2022/03/05 01:12:54;;;;;;;10.30;2.17;;;;;;;;;;6043379;23;20023;-45
2022/03/05 01:15:19;;;;;;;7.50;2.40;;;;;;;;;;6041593;23;20015;-47
2022/03/05 01:17:44;;;;;;;5.40;2.75;;;;;;;;;;6042990;23;20015;-44
2022/03/05 01:20:10;;;;;;;5.60;2.22;;;;;;;;;;6038217;23;20308;-45
2022/03/05 01:22:35;;;;;;;5.18;2.30;;;;;;;;;;6039769;23;20078;-46
2022/03/05 01:25:01;;;;;;;8.05;2.28;;;;;;;;;;6036903;23;20030;-46
2022/03/05 01:27:26;;;;;;;6.60;2.10;;;;;;;;;;6039761;23;20024;-45
2022/03/05 01:29:51;;;;;;;8.35;2.55;;;;;;;;;;6037245;23;20033;-46
2022/03/05 01:32:16;;;;;;;5.05;2.55;;;;;;;;;;6039254;23;20043;-49
2022/03/05 01:34:42;;;;;;;5.78;2.88;;;;;;;;;;6037059;23;20178;-44
2022/03/05 01:37:07;;;;;;;7.47;3.13;;;;;;;;;;6039459;23;20031;-47
2022/03/05 01:39:32;;;;;;;13.55;3.25;;;;;;;;;;6036230;23;20026;-46
2022/03/05 01:41:57;;;;;;;12.93;2.83;;;;;;;;;;6014592;23;20039;-45
2022/03/05 01:44:23;;;;;;;7.95;2.83;;;;;;;;;;6036421;23;20236;-44
2022/03/05 01:46:49;;;;;;;7.55;2.90;;;;;;;;;;6041190;23;20021;-45
2022/03/05 01:49:14;;;;;;;28.92;4.75;;;;;;;;;;6037649;23;20019;-45
2022/03/05 01:51:40;;;;;;;11.93;2.67;;;;;;;;;;6040572;23;20042;-45
2022/03/05 01:54:06;;;;;;;8.55;3.15;;;;;;;;;;6036804;23;20048;-44
2022/03/05 01:56:31;;;;;;;8.07;2.63;;;;;;;;;;6038849;23;20019;-46
2022/03/05 01:58:58;;;;;;;7.22;3.40;;;;;;;;;;6039175;23;20368;-44
2022/03/05 02:01:25;;;;;;;7.30;3.38;;;;;;;;;;6038997;23;20019;-44
2022/03/05 02:03:51;;;;;;;5.75;2.90;;;;;;;;;;6038751;23;20026;-45
2022/03/05 02:06:16;;;;;;;12.10;3.95;;;;;;;;;;6039432;23;20019;-45
2022/03/05 02:08:41;;;;;;;8.02;2.72;;;;;;;;;;6039699;23;20396;-45
2022/03/05 02:11:07;;;;;;;8.63;2.67;;;;;;;;;;6039280;23;20307;-45
2022/03/05 02:13:32;;;;;;;7.80;3.22;;;;;;;;;;6038436;23;20068;-44
2022/03/05 02:15:57;;;;;;;11.93;3.65;;;;;;;;;;6038747;23;20018;-44
2022/03/05 02:18:23;;;;;;;8.02;3.22;;;;;;;;;;6038332;23;20011;-46
2022/03/05 02:20:49;;;;;;;6.75;2.65;;;;;;;;;;6038752;23;20043;-46
2022/03/05 02:23:14;;;;;;;13.75;3.25;;;;;;;;;;6038223;23;20074;-44
2022/03/05 02:25:49;;;;;;;12.60;3.55;;;;;;;;;;6036594;23;20554;-46
2022/03/05 02:28:15;;;;;;;14.77;4.25;;;;;;;;;;6040719;23;20022;-45
2022/03/05 02:30:40;;;;;;;7.40;3.45;;;;;;;;;;6042865;23;20023;-48
2022/03/05 02:33:05;;;;;;;10.60;3.65;;;;;;;;;;6040939;23;20046;-44
2022/03/05 02:35:30;;;;;;;9.55;4.20;;;;;;;;;;6042271;23;20011;-45
2022/03/05 02:37:56;;;;;;;9.23;3.72;;;;;;;;;;6042116;23;20029;-44
2022/03/05 02:40:21;;;;;;;13.50;4.15;;;;;;;;;;6041713;23;20421;-44
2022/03/05 02:42:46;;;;;;;6.53;3.20;;;;;;;;;;6043014;23;20039;-44
2022/03/05 02:45:12;;;;;;;5.25;2.92;;;;;;;;;;6040503;23;20019;-47
2022/03/05 02:47:38;;;;;;;16.45;4.53;;;;;;;;;;6041714;23;20016;-45
2022/03/05 02:50:03;;;;;;;7.40;4.25;;;;;;;;;;6042493;23;20038;-44
2022/03/05 02:52:28;;;;;;;10.30;4.13;;;;;;;;;;6040199;23;20031;-44
2022/03/05 02:54:54;;;;;;;10.98;5.13;;;;;;;;;;6042938;23;20098;-44
2022/03/05 02:57:19;;;;;;;13.05;3.85;;;;;;;;;;6034874;23;20050;-44
2022/03/05 02:59:44;;;;;;;9.88;3.90;;;;;;;;;;6018577;23;20019;-44
2022/03/05 03:02:09;;;;;;;9.32;4.15;;;;;;;;;;6042179;23;20026;-44
2022/03/05 03:04:35;;;;;;;7.90;3.58;;;;;;;;;;6038053;23;20672;-45
2022/03/05 03:07:00;;;;;;;8.25;3.85;;;;;;;;;;6042147;23;20015;-45
2022/03/05 03:09:25;;;;;;;10.25;4.50;;;;;;;;;;6041836;23;20071;-44
2022/03/05 03:11:50;;;;;;;8.60;3.55;;;;;;;;;;6016777;23;20049;-44
2022/03/05 03:14:16;;;;;;;9.02;4.80;;;;;;;;;;6042257;23;20111;-46
2022/03/05 03:16:41;;;;;;;9.98;4.50;;;;;;;;;;6042641;23;20007;-45
2022/03/05 03:19:07;;;;;;;10.68;4.22;;;;;;;;;;6044013;23;20251;-44
2022/03/05 03:21:32;;;;;;;10.10;4.47;;;;;;;;;;6043687;23;20031;-45
2022/03/05 03:23:57;;;;;;;15.25;5.93;;;;;;;;;;6043114;23;20026;-44
2022/03/05 03:26:22;;;;;;;16.23;5.03;;;;;;;;;;6043967;23;20135;-45
2022/03/05 03:28:48;;;;;;;16.08;3.67;;;;;;;;;;6043436;23;20027;-45
2022/03/05 03:31:13;;;;;;;7.75;4.15;;;;;;;;;;6043863;23;20086;-43
2022/03/05 03:33:38;;;;;;;16.15;5.90;;;;;;;;;;6044042;23;20023;-45
2022/03/05 03:36:04;;;;;;;13.32;5.75;;;;;;;;;;6042580;23;20019;-45
2022/03/05 03:38:29;;;;;;;14.70;6.05;;;;;;;;;;6039525;23;20040;-45
2022/03/05 03:40:54;;;;;;;12.73;6.53;;;;;;;;;;6041642;23;20015;-44
2022/03/05 03:43:19;;;;;;;11.98;5.43;;;;;;;;;;6040380;23;20035;-47
2022/03/05 03:45:45;;;;;;;11.38;5.50;;;;;;;;;;6043723;23;20724;-45
2022/03/05 03:48:10;;;;;;;15.85;6.70;;;;;;;;;;6043862;23;20015;-44
2022/03/05 03:50:35;;;;;;;14.45;6.80;;;;;;;;;;6041896;23;20039;-45
2022/03/05 03:53:00;;;;;;;14.77;7.28;;;;;;;;;;6044069;23;20075;-44
2022/03/05 03:55:26;;;;;;;14.50;6.10;;;;;;;;;;6040535;23;20019;-45
2022/03/05 03:57:51;;;;;;;13.13;5.72;;;;;;;;;;6044284;23;20031;-44
2022/03/05 04:00:17;;;;;;;14.77;6.95;;;;;;;;;;6042011;23;20043;-45
2022/03/05 04:02:42;;;;;;;18.95;6.80;;;;;;;;;;6044308;23;20050;-44
2022/03/05 04:05:08;;;;;;;14.40;6.90;;;;;;;;;;6042537;23;20019;-45
2022/03/05 04:10:18;;;;;;;16.85;8.05;;;;;;;;;;6042602;23;20035;-46
2022/03/05 04:12:43;;;;;;;15.25;9.23;;;;;;;;;;6043856;23;20023;-45
2022/03/05 04:15:09;;;;;;;17.67;7.95;;;;;;;;;;6044263;23;20019;-46
2022/03/05 04:17:34;;;;;;;14.75;8.57;;;;;;;;;;6016081;23;20071;-44
2022/03/05 04:19:59;;;;;;;19.00;9.38;;;;;;;;;;6043651;23;20046;-44
2022/03/05 04:22:25;;;;;;;15.68;9.15;;;;;;;;;;6040766;23;20031;-44
2022/03/05 04:24:50;;;;;;;16.48;9.20;;;;;;;;;;6043198;23;20019;-44
2022/03/05 04:27:15;;;;;;;15.55;9.15;;;;;;;;;;6041452;23;20098;-44
2022/03/05 04:29:40;;;;;;;19.15;9.30;;;;;;;;;;6041897;23;20026;-45
2022/03/05 04:32:06;;;;;;;16.55;9.70;;;;;;;;;;6041219;23;20086;-44
2022/03/05 04:34:31;;;;;;;17.95;8.65;;;;;;;;;;6043269;23;20015;-46
2022/03/05 04:36:56;;;;;;;17.65;9.63;;;;;;;;;;6041010;23;20035;-49
2022/03/05 04:39:22;;;;;;;19.80;8.57;;;;;;;;;;6042822;23;20030;-44
2022/03/05 04:41:47;;;;;;;18.60;10.15;;;;;;;;;;6017678;23;20015;-44
2022/03/05 04:44:12;;;;;;;38.53;12.57;;;;;;;;;;6017989;23;20015;-44
2022/03/05 04:46:38;;;;;;;28.05;10.10;;;;;;;;;;6043092;23;20084;-47
2022/03/05 04:49:03;;;;;;;22.67;10.75;;;;;;;;;;6044087;23;20043;-46
2022/03/05 04:51:29;;;;;;;21.10;11.38;;;;;;;;;;6041908;23;20026;-45
2022/03/05 04:53:54;;;;;;;21.73;10.05;;;;;;;;;;6043502;23;20085;-45
2022/03/05 04:56:20;;;;;;;17.63;9.02;;;;;;;;;;6042423;23;20082;-44
2022/03/05 04:58:45;;;;;;;17.83;9.55;;;;;;;;;;6043035;23;20019;-44
2022/03/05 05:01:10;;;;;;;32.10;11.43;;;;;;;;;;6043830;23;20011;-45
2022/03/05 05:03:36;;;;;;;19.65;10.05;;;;;;;;;;6040786;23;20042;-44
2022/03/05 05:06:01;;;;;;;28.85;10.07;;;;;;;;;;6043812;23;20020;-49
2022/03/05 05:08:26;;;;;;;16.55;9.38;;;;;;;;;;6040817;23;20033;-46
2022/03/05 05:10:52;;;;;;;19.92;10.48;;;;;;;;;;6044077;23;20345;-45
2022/03/05 05:13:17;;;;;;;20.65;11.30;;;;;;;;;;6041746;23;20538;-46
2022/03/05 05:15:43;;;;;;;20.55;10.43;;;;;;;;;;6043880;23;20067;-45
2022/03/05 05:18:08;;;;;;;14.77;9.85;;;;;;;;;;6042014;23;20019;-43
2022/03/05 05:20:33;;;;;;;15.25;10.18;;;;;;;;;;6043687;23;20325;-45
2022/03/05 05:22:59;;;;;;;14.18;9.77;;;;;;;;;;6041736;23;20015;-45
2022/03/05 05:25:24;;;;;;;15.88;9.45;;;;;;;;;;6043438;23;20465;-44
2022/03/05 05:27:49;;;;;;;21.55;9.70;;;;;;;;;;6042225;23;20011;-45
2022/03/05 05:30:14;;;;;;;16.45;8.90;;;;;;;;;;6043517;23;20011;-46
2022/03/05 05:32:40;;;;;;;16.70;10.02;;;;;;;;;;6042432;23;20031;-46
2022/03/05 05:35:05;;;;;;;18.10;9.05;;;;;;;;;;6043432;23;20629;-44
2022/03/05 05:37:31;;;;;;;15.07;8.93;;;;;;;;;;6041926;23;20023;-44
2022/03/05 05:39:56;;;;;;;17.98;9.65;;;;;;;;;;6043105;23;20023;-44
2022/03/05 05:42:21;;;;;;;24.80;10.43;;;;;;;;;;6042087;23;20015;-44
2022/03/05 05:44:47;;;;;;;18.60;10.40;;;;;;;;;;6018041;23;20100;-44
2022/03/05 05:47:12;;;;;;;24.10;9.95;;;;;;;;;;6042294;23;20016;-47
2022/03/05 05:49:37;;;;;;;18.90;9.68;;;;;;;;;;6043527;23;20012;-48
2022/03/05 05:52:03;;;;;;;18.50;11.25;;;;;;;;;;6039676;23;20042;-45
2022/03/05 05:54:29;;;;;;;16.02;9.13;;;;;;;;;;6042985;23;20011;-44
2022/03/05 05:56:54;;;;;;;16.23;10.82;;;;;;;;;;6040679;23;20101;-46
2022/03/05 05:59:19;;;;;;;15.20;9.43;;;;;;;;;;6041907;23;20048;-44
2022/03/05 06:01:44;;;;;;;14.90;8.85;;;;;;;;;;6040367;23;20019;-44
2022/03/05 06:04:10;;;;;;;20.65;11.80;;;;;;;;;;6042712;23;20035;-45
2022/03/05 06:06:35;;;;;;;18.42;10.45;;;;;;;;;;6040670;23;20019;-44
2022/03/05 06:09:00;;;;;;;13.73;8.30;;;;;;;;;;6043271;23;20062;-44
2022/03/05 06:11:26;;;;;;;18.17;10.00;;;;;;;;;;6040941;23;20023;-46
2022/03/05 06:13:51;;;;;;;17.45;9.13;;;;;;;;;;6043131;23;20031;-45
2022/03/05 06:16:17;;;;;;;17.98;10.27;;;;;;;;;;6040693;23;20022;-50
2022/03/05 06:18:42;;;;;;;18.40;9.73;;;;;;;;;;6043368;23;20073;-44
2022/03/05 06:21:08;;;;;;;15.07;9.60;;;;;;;;;;6042127;23;20019;-45
2022/03/05 06:23:33;;;;;;;29.98;13.20;;;;;;;;;;6042525;23;20107;-46
2022/03/05 06:25:59;;;;;;;19.55;12.05;;;;;;;;;;6041020;23;20026;-44
2022/03/05 06:28:24;;;;;;;19.70;11.20;;;;;;;;;;6042735;23;20035;-44
2022/03/05 06:30:50;;;;;;;19.92;11.00;;;;;;;;;;6041306;23;20015;-44
2022/03/05 06:33:15;;;;;;;21.65;12.38;;;;;;;;;;6042488;23;20027;-45
2022/03/05 06:35:40;;;;;;;24.52;13.20;;;;;;;;;;6040883;23;20019;-46
2022/03/05 06:38:05;;;;;;;20.20;12.70;;;;;;;;;;6043113;23;20034;-44
2022/03/05 06:40:31;;;;;;;22.55;13.73;;;;;;;;;;6040478;23;20020;-46
2022/03/05 06:42:56;;;;;;;24.38;14.70;;;;;;;;;;6042938;23;20034;-44
2022/03/05 06:45:21;;;;;;;22.73;13.05;;;;;;;;;;6040678;23;20011;-44
2022/03/05 06:47:47;;;;;;;25.55;14.18;;;;;;;;;;6043624;23;20026;-44
2022/03/05 06:50:12;;;;;;;20.48;12.95;;;;;;;;;;6039055;23;20047;-46
2022/03/05 06:52:38;;;;;;;20.95;12.13;;;;;;;;;;6042895;23;20076;-44
2022/03/05 06:55:04;;;;;;;16.38;12.15;;;;;;;;;;6014891;23;20016;-43
2022/03/05 06:57:29;;;;;;;34.72;14.13;;;;;;;;;;6042690;23;20015;-44
2022/03/05 06:59:54;;;;;;;25.00;13.52;;;;;;;;;;6041360;23;20011;-45
2022/03/05 07:02:21;;;;;;;21.63;12.85;;;;;;;;;;6017709;23;20044;-44
2022/03/05 07:04:46;;;;;;;20.58;12.65;;;;;;;;;;6041225;23;20019;-46
2022/03/05 07:07:11;;;;;;;27.48;13.75;;;;;;;;;;6042790;23;20015;-54
2022/03/05 07:09:36;;;;;;;25.40;12.27;;;;;;;;;;6041386;23;20024;-44
2022/03/05 07:12:02;;;;;;;21.08;12.07;;;;;;;;;;6043381;23;20052;-44
2022/03/05 07:14:27;;;;;;;18.02;12.05;;;;;;;;;;6040034;23;20019;-43
2022/03/05 07:16:53;;;;;;;24.20;13.30;;;;;;;;;;6043385;23;20015;-46
2022/03/05 07:19:18;;;;;;;19.10;11.70;;;;;;;;;;6040701;23;20043;-44
2022/03/05 07:21:43;;;;;;;22.05;12.18;;;;;;;;;;6043745;23;20507;-45
2022/03/05 07:24:08;;;;;;;18.58;10.32;;;;;;;;;;6040441;23;20020;-44
2022/03/05 07:26:34;;;;;;;17.92;9.45;;;;;;;;;;6039474;23;20030;-44
2022/03/05 07:28:59;;;;;;;16.20;9.85;;;;;;;;;;6013139;23;20022;-44
2022/03/05 07:31:24;;;;;;;19.35;10.35;;;;;;;;;;6039618;23;20024;-44
2022/03/05 07:33:50;;;;;;;17.02;10.32;;;;;;;;;;6039030;23;20023;-45
2022/03/05 07:36:16;;;;;;;18.95;10.55;;;;;;;;;;6037679;23;20418;-45
2022/03/05 07:38:44;;;;;;;15.52;9.07;;;;;;;;;;6038829;23;20011;-46
2022/03/05 07:41:10;;;;;;;13.98;8.93;;;;;;;;;;6040033;23;20034;-44
2022/03/05 07:43:35;;;;;;;15.02;9.07;;;;;;;;;;6037494;23;20099;-44
2022/03/05 07:46:00;;;;;;;15.23;8.80;;;;;;;;;;6039112;23;20023;-45
2022/03/05 07:48:25;;;;;;;18.95;9.15;;;;;;;;;;6037184;23;20011;-44
2022/03/05 07:50:51;;;;;;;12.48;7.55;;;;;;;;;;6038482;23;20035;-44
2022/03/05 07:53:17;;;;;;;15.68;7.93;;;;;;;;;;6037370;23;20493;-45
2022/03/05 07:55:42;;;;;;;9.73;7.15;;;;;;;;;;6039248;23;20079;-45
2022/03/05 07:58:08;;;;;;;12.25;8.48;;;;;;;;;;6039099;23;20045;-44
2022/03/05 08:00:33;;;;;;;11.90;6.32;;;;;;;;;;6037529;23;20042;-45
2022/03/05 08:02:59;;;;;;;12.27;7.53;;;;;;;;;;6038889;23;20023;-47
2022/03/05 08:05:25;;;;;;;14.38;7.55;;;;;;;;;;6040365;23;20283;-44
2022/03/05 08:07:52;;;;;;;8.40;5.30;;;;;;;;;;6041180;23;20441;-44
2022/03/05 08:10:18;;;;;;;12.48;6.72;;;;;;;;;;6040114;23;20019;-50
2022/03/05 08:12:43;;;;;;;9.55;5.78;;;;;;;;;;6040435;23;20038;-46
2022/03/05 08:15:09;;;;;;;13.27;6.70;;;;;;;;;;6014884;23;20542;-45
2022/03/05 08:17:34;;;;;;;12.98;6.07;;;;;;;;;;6039794;23;20050;-46
2022/03/05 08:20:00;;;;;;;9.27;6.65;;;;;;;;;;6039672;23;20015;-43
2022/03/05 08:22:25;;;;;;;9.15;4.82;;;;;;;;;;6039784;23;20019;-45
2022/03/05 08:24:51;;;;;;;7.47;5.13;;;;;;;;;;6039276;23;20373;-44
2022/03/05 08:27:16;;;;;;;7.32;5.32;;;;;;;;;;6039961;23;20019;-45
2022/03/05 08:29:42;;;;;;;9.52;5.18;;;;;;;;;;6040760;23;20011;-45
2022/03/05 08:32:08;;;;;;;5.55;4.53;;;;;;;;;;6043441;23;20031;-44
2022/03/05 08:34:34;;;;;;;9.60;6.28;;;;;;;;;;6042533;23;20394;-46
2022/03/05 08:36:59;;;;;;;6.88;5.53;;;;;;;;;;6041111;23;20050;-45
2022/03/05 08:39:25;;;;;;;8.07;5.38;;;;;;;;;;6043698;23;20699;-44
2022/03/05 08:41:51;;;;;;;8.80;4.75;;;;;;;;;;6040943;23;20018;-44
2022/03/05 08:44:16;;;;;;;7.53;4.88;;;;;;;;;;6042589;23;20071;-47
2022/03/05 08:46:41;;;;;;;8.68;4.63;;;;;;;;;;6035899;23;20026;-44
2022/03/05 08:49:06;;;;;;;9.35;4.70;;;;;;;;;;6042832;23;20043;-44
2022/03/05 08:51:32;;;;;;;6.68;4.00;;;;;;;;;;6039932;23;20007;-44
2022/03/05 08:53:57;;;;;;;10.20;5.15;;;;;;;;;;6043304;23;20027;-44
2022/03/05 08:56:23;;;;;;;8.05;4.07;;;;;;;;;;6040172;23;20016;-44
2022/03/05 08:58:48;;;;;;;6.72;4.38;;;;;;;;;;6043659;23;20030;-46
2022/03/05 09:01:13;;;;;;;6.05;4.40;;;;;;;;;;6041569;23;20025;-44
2022/03/05 09:03:39;;;;;;;6.78;3.95;;;;;;;;;;6043983;23;20019;-44
2022/03/05 09:06:04;;;;;;;6.70;4.00;;;;;;;;;;6042143;23;20015;-45
2022/03/05 09:08:30;;;;;;;6.78;4.22;;;;;;;;;;6041722;23;20022;-46
2022/03/05 09:10:55;;;;;;;13.60;4.97;;;;;;;;;;6043509;23;20473;-45
2022/03/05 09:13:20;;;;;;;7.95;4.30;;;;;;;;;;6035378;23;20096;-46
2022/03/05 09:15:46;;;;;;;4.72;3.92;;;;;;;;;;6027139;23;20030;-47
2022/03/05 09:18:11;;;;;;;3.83;2.90;;;;;;;;;;6056363;23;20007;-49
2022/03/05 09:20:37;;;;;;;7.15;4.38;;;;;;;;;;6070848;23;20084;-48
2022/03/05 09:23:03;;;;;;;8.73;3.75;;;;;;;;;;6069915;23;20011;-48
2022/03/05 09:25:28;;;;;;;6.97;4.10;;;;;;;;;;6070385;23;20019;-49
2022/03/05 09:27:53;;;;;;;7.03;4.03;;;;;;;;;;6069334;23;20089;-46
2022/03/05 09:30:19;;;;;;;3.90;3.22;;;;;;;;;;5988651;23;20917;-47
2022/03/05 09:32:44;;;;;;;4.65;3.63;;;;;;;;;;6011771;23;20034;-50
2022/03/05 09:35:09;;;;;;;3.90;3.42;;;;;;;;;;6014419;23;20012;-47
2022/03/05 09:37:35;;;;;;;3.67;2.83;;;;;;;;;;6014112;23;20684;-51
2022/03/05 09:40:00;;;;;;;6.40;3.13;;;;;;;;;;5990064;23;20043;-47
2022/03/05 09:42:26;;;;;;;5.15;2.90;;;;;;;;;;6013755;23;20011;-48
2022/03/05 09:44:52;;;;;;;6.75;3.05;;;;;;;;;;5988363;23;20019;-48
2022/03/05 09:47:17;;;;;;;4.43;3.08;;;;;;;;;;5986189;23;20016;-49
2022/03/05 09:49:42;;;;;;;6.47;3.20;;;;;;;;;;6014532;23;20026;-49
2022/03/05 09:52:08;;;;;;;4.68;2.90;;;;;;;;;;6011050;23;20015;-47
2022/03/05 09:54:34;;;;;;;3.78;2.95;;;;;;;;;;6014417;23;20019;-47
2022/03/05 09:56:59;;;;;;;3.28;2.60;;;;;;;;;;6012036;23;20030;-51
2022/03/05 09:59:25;;;;;;;4.15;3.10;;;;;;;;;;6014295;23;20088;-47
2022/03/05 10:01:51;;;;;;;9.57;2.88;;;;;;;;;;6008768;23;20378;-48
2022/03/05 10:04:23;;;;;;;4.28;2.05;;;;;;;;;;5984191;23;20078;-47
2022/03/05 10:07:08;;;;;;;3.40;3.10;;;;;;;;;;6014502;23;20244;-48
2022/03/05 10:09:33;;;;;;;6.13;2.67;;;;;;;;;;6011552;23;20044;-47
2022/03/05 10:11:59;;;;;;;7.07;2.40;;;;;;;;;;5988026;23;20023;-57
2022/03/05 10:14:24;;;;;;;5.55;2.75;;;;;;;;;;6010632;23;20023;-58
2022/03/05 10:16:49;;;;;;;2.65;2.05;;;;;;;;;;6010025;23;20011;-56
2022/03/05 10:22:15;;;;;;;5.40;2.30;;;;;;;;;;5980594;23;20673;-48
2022/03/05 10:24:41;;;;;;;8.10;2.70;;;;;;;;;;5989158;23;20103;-48
2022/03/05 10:27:07;;;;;;;3.50;2.75;;;;;;;;;;6012280;23;20052;-46
2022/03/05 10:29:35;;;;;;;5.68;2.30;;;;;;;;;;6013202;23;20015;-48
2022/03/05 10:32:02;;;;;;;6.47;2.58;;;;;;;;;;6012450;23;20019;-48
2022/03/05 10:34:53;;;;;;;3.22;2.33;;;;;;;;;;5987672;23;20026;-46
2022/03/05 10:37:19;;;;;;;6.25;2.33;;;;;;;;;;6013368;23;20075;-47
2022/03/05 10:39:45;;;;;;;4.57;2.15;;;;;;;;;;6012035;23;20011;-48
2022/03/05 10:42:20;;;;;;;7.00;1.90;;;;;;;;;;6015017;23;20430;-48
2022/03/05 10:45:03;;;;;;;4.47;1.58;;;;;;;;;;6009408;23;20048;-48
2022/03/05 10:47:38;;;;;;;3.47;1.60;;;;;;;;;;6007398;23;20020;-47
2022/03/05 10:50:22;;;;;;;5.15;2.53;;;;;;;;;;5986233;23;20031;-47
2022/03/05 10:52:51;;;;;;;4.55;1.90;;;;;;;;;;6011618;23;20020;-48
2022/03/05 10:55:18;;;;;;;3.33;1.80;;;;;;;;;;5987980;23;20035;-48
2022/03/05 10:58:03;;;;;;;2.67;1.45;;;;;;;;;;6014607;23;20445;-48
2022/03/05 11:00:29;;;;;;;3.20;1.00;;;;;;;;;;6010543;23;20020;-50
2022/03/05 11:02:55;;;;;;;9.85;1.70;;;;;;;;;;6015061;23;20042;-50
2022/03/05 11:05:21;;;;;;;6.50;1.27;;;;;;;;;;6012674;23;20020;-49
2022/03/05 11:07:47;;;;;;;3.55;1.17;;;;;;;;;;6014535;23;20011;-48
2022/03/05 11:10:13;;;;;;;2.97;1.42;;;;;;;;;;6012495;23;20023;-47
2022/03/05 11:12:39;;;;;;;2.75;1.40;;;;;;;;;;6011023;23;20048;-49
2022/03/05 11:15:06;;;;;;;3.83;1.10;;;;;;;;;;5982142;23;20039;-49
2022/03/05 11:17:31;;;;;;;4.55;2.05;;;;;;;;;;5983832;23;20719;-51
2022/03/05 11:19:57;;;;;;;2.72;1.00;;;;;;;;;;6012526;23;20413;-48
2022/03/05 11:22:22;;;;;;;1.92;1.30;;;;;;;;;;6007893;23;20019;-51
2022/03/05 11:24:48;;;;;;;1.50;1.35;;;;;;;;;;5984553;23;20012;-48
2022/03/05 11:27:14;;;;;;;3.63;1.60;;;;;;;;;;6006429;23;20019;-48
2022/03/05 11:29:59;;;;;;;2.67;1.38;;;;;;;;;;6011026;23;20083;-49
2022/03/05 11:32:32;;;;;;;8.30;1.50;;;;;;;;;;6007868;23;20238;-49
2022/03/05 11:34:58;;;;;;;4.82;1.33;;;;;;;;;;6008636;23;20020;-50
2022/03/05 11:37:24;;;;;;;6.07;2.92;;;;;;;;;;6007345;23;20054;-48
2022/03/05 11:39:50;;;;;;;2.63;1.05;;;;;;;;;;6012363;23;20015;-50
2022/03/05 11:42:31;;;;;;;4.28;1.35;;;;;;;;;;6008699;23;20051;-47
2022/03/05 11:44:57;;;;;;;1.98;1.35;;;;;;;;;;6009917;23;20067;-51
2022/03/05 11:47:24;;;;;;;1.98;1.33;;;;;;;;;;6000998;23;20328;-50
2022/03/05 11:49:58;;;;;;;1.48;0.77;;;;;;;;;;6004295;23;20016;-48
2022/03/05 11:52:39;;;;;;;6.32;1.20;;;;;;;;;;6007418;23;20024;-48
2022/03/05 11:55:10;;;;;;;4.47;1.67;;;;;;;;;;6004552;23;20024;-49
2022/03/05 11:57:35;;;;;;;2.88;1.60;;;;;;;;;;5979450;23;20090;-48
2022/03/05 12:00:03;;;;;;;2.40;0.82;;;;;;;;;;6007409;23;20023;-47
2022/03/05 12:02:44;;;;;;;3.75;1.52;;;;;;;;;;6004851;23;20015;-51
2022/03/05 12:05:09;;;;;;;5.90;1.10;;;;;;;;;;5982475;23;20011;-48
2022/03/05 12:07:36;;;;;;;2.03;0.90;;;;;;;;;;5979404;23;20308;-49
2022/03/05 12:12:53;;;;;;;6.13;1.38;;;;;;;;;;5962980;23;20052;-55
2022/03/05 12:15:26;;;;;;;2.60;1.30;;;;;;;;;;6002686;23;20016;-57
2022/03/05 12:17:52;;;;;;;2.50;1.08;;;;;;;;;;6006731;23;20040;-54
2022/03/05 12:20:19;;;;;;;4.05;1.13;;;;;;;;;;6005439;23;20015;-55
2022/03/05 12:23:01;;;;;;;2.53;1.13;;;;;;;;;;5975217;23;20031;-47
2022/03/05 12:25:27;;;;;;;3.92;1.98;;;;;;;;;;6002641;23;20119;-46
2022/03/05 12:27:53;;;;;;;6.68;2.63;;;;;;;;;;6007857;23;20024;-51
2022/03/05 12:30:20;;;;;;;4.47;1.98;;;;;;;;;;6007846;23;20051;-49
2022/03/05 12:32:47;;;;;;;2.33;1.42;;;;;;;;;;6008822;23;20034;-51
2022/03/05 12:35:13;;;;;;;3.40;1.65;;;;;;;;;;6009671;23;20083;-48
2022/03/05 12:37:38;;;;;;;3.30;1.63;;;;;;;;;;6007503;23;20023;-52
2022/03/05 12:40:04;;;;;;;3.67;1.63;;;;;;;;;;5977805;23;20440;-58
2022/03/05 12:42:43;;;;;;;4.07;1.38;;;;;;;;;;5988939;23;20031;-55
2022/03/05 12:48:07;;;;;;;6.10;1.63;;;;;;;;;;6002871;23;20028;-57
2022/03/05 12:50:37;;;;;;;2.95;1.92;;;;;;;;;;6008035;23;20027;-57
2022/03/05 12:53:02;;;;;;;;;;;;;;;;;;6018074;23;20503;-58
2022/03/05 12:57:55;;;;;;;4.10;2.28;;;;;;;;;;5989570;23;20247;-50
2022/03/05 13:00:20;;;;;;;3.65;1.75;;;;;;;;;;6012409;23;20015;-47
2022/03/05 13:02:45;;;;;;;4.80;1.67;;;;;;;;;;5993380;23;20484;-49
2022/03/05 13:05:12;;;;;;;7.03;2.65;;;;;;;;;;6016807;23;20024;-48
2022/03/05 13:07:37;;;;;;;5.57;2.08;;;;;;;;;;6016964;23;20448;-52
2022/03/05 13:10:06;;;;;;;8.30;1.52;;;;;;;;;;6017462;23;20019;-48
2022/03/05 13:12:38;;;;;;;3.53;2.00;;;;;;;;;;6017031;23;20360;-49
2022/03/05 13:15:04;;;;;;;2.15;1.77;;;;;;;;;;6017826;23;20016;-47
2022/03/05 13:17:29;;;;;;;4.03;1.65;;;;;;;;;;6016458;23;20020;-48
2022/03/05 13:19:58;;;;;;;3.85;2.05;;;;;;;;;;6017371;23;20074;-48
2022/03/05 13:22:25;;;;;;;6.13;1.88;;;;;;;;;;6017832;23;20019;-51
2022/03/05 13:24:50;;;;;;;3.50;1.55;;;;;;;;;;6017297;23;20019;-47
2022/03/05 13:27:15;;;;;;;9.80;1.63;;;;;;;;;;6016839;23;20023;-50
2022/03/05 13:29:40;;;;;;;2.38;1.05;;;;;;;;;;6016762;23;20274;-49
2022/03/05 13:32:06;;;;;;;9.25;2.35;;;;;;;;;;6017571;23;20047;-48
2022/03/05 13:37:05;;;;;;;3.65;1.20;;;;;;;;;;6000522;23;20032;-46
2022/03/05 13:39:33;;;;;;;4.45;1.42;;;;;;;;;;6017342;23;20044;-44
2022/03/05 13:41:58;;;;;;;6.90;2.15;;;;;;;;;;6017088;23;20016;-44
2022/03/05 13:44:25;;;;;;;5.90;1.40;;;;;;;;;;6016467;23;20015;-44
2022/03/05 13:46:54;;;;;;;2.35;1.13;;;;;;;;;;6021007;23;20048;-44
2022/03/05 13:49:20;;;;;;;7.28;2.75;;;;;;;;;;6021339;23;20019;-44
2022/03/05 13:51:53;;;;;;;2.67;1.38;;;;;;;;;;5996017;23;20239;-44
2022/03/05 13:54:32;;;;;;;8.38;1.65;;;;;;;;;;6021814;23;20034;-44
2022/03/05 13:56:58;;;;;;;3.30;1.48;;;;;;;;;;6021561;23;20052;-46
2022/03/05 13:59:35;;;;;;;3.55;1.40;;;;;;;;;;6021336;23;20019;-44
2022/03/05 14:02:00;;;;;;;7.15;2.00;;;;;;;;;;6021179;23;20015;-44
2022/03/05 14:04:25;;;;;;;6.25;2.42;;;;;;;;;;6021227;23;20008;-44
2022/03/05 14:07:03;;;;;;;6.00;1.17;;;;;;;;;;6022159;23;20091;-45
2022/03/05 14:09:29;;;;;;;7.65;1.40;;;;;;;;;;5996443;23;20023;-47
2022/03/05 14:12:04;;;;;;;3.15;1.13;;;;;;;;;;6021485;23;20599;-44
2022/03/05 14:14:33;;;;;;;4.40;1.63;;;;;;;;;;6021585;23;20022;-46
2022/03/05 14:16:58;;;;;;;4.47;1.30;;;;;;;;;;6022251;23;20480;-48
2022/03/05 14:19:28;;;;;;;5.07;1.25;;;;;;;;;;6021283;23;20052;-46
2022/03/05 14:22:04;;;;;;;5.95;1.23;;;;;;;;;;6021924;23;20035;-46
2022/03/05 14:24:29;;;;;;;3.95;1.20;;;;;;;;;;6021656;23;20020;-48
2022/03/05 14:26:54;;;;;;;5.55;0.82;;;;;;;;;;6022111;23;20027;-44
2022/03/05 14:29:19;;;;;;;3.30;1.05;;;;;;;;;;6021049;23;20011;-48
2022/03/05 14:31:45;;;;;;;5.15;1.88;;;;;;;;;;6022144;23;20087;-46
2022/03/05 14:34:21;;;;;;;2.47;0.90;;;;;;;;;;6021520;23;20028;-45
2022/03/05 14:36:46;;;;;;;9.15;1.13;;;;;;;;;;5981096;24;20381;-44
2022/03/05 14:39:13;;;;;;;4.95;1.88;;;;;;;;;;5993275;23;20016;-49
2022/03/05 14:41:38;;;;;;;5.85;1.90;;;;;;;;;;5994208;23;20020;-48
2022/03/05 14:44:03;;;;;;;3.60;0.85;;;;;;;;;;5993055;23;20046;-45
2022/03/05 14:46:29;;;;;;;4.40;0.90;;;;;;;;;;5993509;23;20049;-47